createdAt,value
2018-06-04T00:02:24.766Z,22.77
2018-06-04T00:04:52.870Z,21.23
2018-06-04T00:07:20.978Z,23.03
2018-06-04T00:09:49.164Z,22.60
2018-06-04T00:12:17.265Z,22.13
2018-06-04T00:14:45.350Z,23.23
2018-06-04T00:17:13.490Z,23.20
2018-06-04T00:19:41.598Z,22.40
2018-06-04T00:22:09.758Z,22.50
2018-06-04T00:24:37.861Z,23.33
2018-06-04T00:27:05.949Z,23.70
2018-06-04T00:29:34.054Z,21.70
2018-06-04T00:32:02.175Z,23.00
2018-06-04T00:34:30.265Z,23.83
2018-06-04T00:36:58.370Z,22.07
2018-06-04T00:39:26.506Z,23.20
2018-06-04T00:41:54.636Z,23.37
2018-06-04T00:44:23.181Z,23.93
2018-06-04T00:46:51.310Z,23.73
2018-06-04T00:49:19.425Z,23.30
2018-06-04T00:51:47.950Z,24.27
2018-06-04T00:54:16.065Z,21.70
2018-06-04T00:56:44.610Z,21.53
2018-06-04T00:59:12.736Z,21.97
2018-06-04T01:01:40.842Z,21.80
2018-06-04T01:04:08.977Z,23.50
2018-06-04T01:06:37.118Z,23.37
2018-06-04T01:09:06.499Z,22.37
2018-06-04T01:11:34.598Z,21.93
2018-06-04T01:14:02.751Z,22.07
2018-06-04T01:16:30.894Z,22.77
2018-06-04T01:18:59.009Z,20.33
2018-06-04T01:21:27.143Z,21.03
2018-06-04T01:23:55.326Z,21.33
2018-06-04T01:26:23.445Z,20.30
2018-06-04T01:28:51.577Z,21.30
2018-06-04T01:31:19.694Z,20.77
2018-06-04T01:33:47.826Z,21.60
2018-06-04T01:36:15.958Z,22.27
2018-06-04T01:38:44.090Z,21.00
2018-06-04T01:41:12.196Z,21.60
2018-06-04T01:43:40.334Z,23.03
2018-06-04T01:46:08.435Z,24.20
2018-06-04T01:48:37.458Z,25.87
2018-06-04T01:51:05.942Z,26.00
2018-06-04T01:53:34.066Z,25.07
2018-06-04T01:56:02.170Z,26.13
2018-06-04T01:58:30.305Z,25.60
2018-06-04T02:00:58.405Z,25.87
2018-06-04T02:03:26.543Z,26.60
2018-06-04T02:05:54.654Z,27.33
2018-06-04T02:08:22.825Z,24.83
2018-06-04T02:10:50.938Z,26.27
2018-06-04T02:13:19.065Z,26.77
2018-06-04T02:15:47.174Z,25.77
2018-06-04T02:18:15.285Z,26.37
2018-06-04T02:20:43.393Z,26.80
2018-06-04T02:23:11.549Z,26.90
2018-06-04T02:25:39.665Z,27.50
2018-06-04T02:28:07.774Z,26.17
2018-06-04T02:30:35.899Z,27.63
2018-06-04T02:33:03.998Z,27.87
2018-06-04T02:35:32.114Z,27.10
2018-06-04T02:38:00.255Z,28.70
2018-06-04T02:40:28.358Z,29.50
2018-06-04T02:42:56.463Z,28.40
2018-06-04T02:45:24.591Z,28.50
2018-06-04T02:47:52.716Z,27.57
2018-06-04T02:50:20.810Z,26.70
2018-06-04T02:52:48.922Z,28.13
2018-06-04T02:55:17.027Z,26.83
2018-06-04T02:57:45.130Z,25.13
2018-06-04T03:00:13.248Z,24.73
2018-06-04T03:02:41.386Z,26.73
2018-06-04T03:05:09.486Z,27.83
2018-06-04T03:07:37.589Z,29.47
2018-06-04T03:10:05.733Z,27.93
2018-06-04T03:12:33.838Z,28.50
2018-06-04T03:15:01.943Z,28.07
2018-06-04T03:17:30.065Z,29.17
2018-06-04T03:19:58.189Z,29.60
2018-06-04T03:22:26.304Z,27.60
2018-06-04T03:24:54.437Z,30.57
2018-06-04T03:27:22.943Z,28.80
2018-06-04T03:29:51.082Z,29.27
2018-06-04T03:32:19.178Z,26.63
2018-06-04T03:34:47.332Z,27.30
2018-06-04T03:37:15.438Z,25.83
2018-06-04T03:39:43.573Z,27.67
2018-06-04T03:42:11.686Z,27.73
2018-06-04T03:44:39.837Z,27.43
2018-06-04T03:47:07.960Z,27.20
2018-06-04T03:49:36.078Z,27.47
2018-06-04T03:52:04.630Z,26.10
2018-06-04T03:54:32.765Z,27.33
2018-06-04T03:57:00.874Z,26.63
2018-06-04T03:59:29.051Z,25.50
2018-06-04T04:01:57.186Z,26.00
2018-06-04T04:04:25.328Z,26.40
2018-06-04T04:06:53.453Z,26.73
2018-06-04T04:09:21.562Z,27.33
2018-06-04T04:11:49.698Z,26.60
2018-06-04T04:14:17.810Z,26.43
2018-06-04T04:16:45.951Z,26.80
2018-06-04T04:19:14.107Z,25.93
2018-06-04T04:21:42.190Z,26.17
2018-06-04T04:24:10.309Z,25.97
2018-06-04T04:26:38.417Z,26.47
2018-06-04T04:29:06.527Z,24.57
2018-06-04T04:31:34.826Z,26.07
2018-06-04T04:34:03.099Z,26.37
2018-06-04T04:36:31.194Z,24.40
2018-06-04T04:38:59.307Z,24.60
2018-06-04T04:41:27.430Z,25.50
2018-06-04T04:43:55.596Z,26.43
2018-06-04T04:46:23.687Z,25.63
2018-06-04T04:48:51.786Z,26.23
2018-06-04T04:51:19.898Z,28.13
2018-06-04T04:53:48.009Z,26.77
2018-06-04T04:56:16.462Z,27.77
2018-06-04T04:58:44.607Z,28.63
2018-06-04T05:01:12.750Z,29.33
2018-06-04T05:03:40.838Z,28.17
2018-06-04T05:06:08.993Z,32.10
2018-06-04T05:08:37.114Z,30.63
2018-06-04T05:11:05.231Z,31.00
2018-06-04T05:13:33.786Z,31.90
2018-06-04T05:16:01.884Z,30.53
2018-06-04T05:18:29.986Z,30.73
2018-06-04T05:20:58.094Z,30.17
2018-06-04T05:23:26.194Z,29.33
2018-06-04T05:25:54.702Z,29.87
2018-06-04T05:28:22.834Z,30.73
2018-06-04T05:30:50.969Z,30.53
2018-06-04T05:33:19.089Z,30.77
2018-06-04T05:35:47.562Z,30.33
2018-06-04T05:38:16.240Z,28.93
2018-06-04T05:40:45.042Z,28.87
2018-06-04T05:43:13.158Z,30.17
2018-06-04T05:45:41.262Z,29.17
2018-06-04T05:48:09.353Z,30.50
2018-06-04T05:50:37.445Z,29.90
2018-06-04T05:53:05.570Z,29.93
2018-06-04T05:55:33.682Z,29.77
2018-06-04T05:58:01.805Z,30.27
2018-06-04T06:00:29.909Z,27.17
2018-06-04T06:02:58.025Z,28.03
2018-06-04T06:05:26.140Z,27.93
2018-06-04T06:07:54.289Z,28.20
2018-06-04T06:10:22.402Z,27.67
2018-06-04T06:12:50.982Z,27.47
2018-06-04T06:15:19.111Z,23.67
2018-06-04T06:17:47.262Z,23.90
2018-06-04T06:20:15.357Z,25.33
2018-06-04T06:22:43.530Z,24.60
2018-06-04T06:25:11.645Z,25.17
2018-06-04T06:27:39.778Z,23.83
2018-06-04T06:30:07.893Z,26.35
2018-06-04T06:32:36.014Z,25.50
2018-06-04T06:35:04.550Z,24.25
2018-06-04T06:37:32.671Z,24.60
2018-06-04T06:40:00.789Z,25.17
2018-06-04T06:42:28.891Z,24.92
2018-06-04T06:44:56.989Z,25.92
2018-06-04T06:47:25.125Z,25.15
2018-06-04T06:49:53.274Z,27.55
2018-06-04T06:52:21.380Z,25.27
2018-06-04T06:54:49.469Z,26.12
2018-06-04T06:57:17.601Z,24.80
2018-06-04T06:59:45.718Z,25.60
2018-06-04T07:02:13.862Z,24.65
2018-06-04T07:04:42.009Z,25.90
2018-06-04T07:07:10.119Z,26.33
2018-06-04T07:09:38.214Z,26.00
2018-06-04T07:12:06.315Z,27.52
2018-06-04T07:14:34.440Z,25.95
2018-06-04T07:17:02.574Z,26.10
2018-06-04T07:19:30.690Z,26.12
2018-06-04T07:21:58.809Z,26.65
2018-06-04T07:24:26.914Z,25.20
2018-06-04T07:26:55.056Z,27.02
2018-06-04T07:29:23.169Z,27.90
2018-06-04T07:31:51.290Z,28.30
2018-06-04T07:34:19.470Z,28.57
2018-06-04T07:36:47.602Z,30.05
2018-06-04T07:39:15.706Z,30.37
2018-06-04T07:41:43.846Z,29.55
2018-06-04T07:44:11.956Z,28.23
2018-06-04T07:46:40.090Z,28.92
2018-06-04T07:49:08.204Z,29.07
2018-06-04T07:51:36.366Z,28.73
2018-06-04T07:54:04.482Z,26.65
2018-06-04T07:56:32.594Z,27.15
2018-06-04T07:59:00.694Z,26.50
2018-06-04T08:01:28.786Z,28.07
2018-06-04T08:03:56.895Z,28.23
2018-06-04T08:06:25.045Z,28.38
2018-06-04T08:08:53.126Z,26.68
2018-06-04T08:11:21.626Z,27.93
2018-06-04T08:13:49.745Z,26.97
2018-06-04T08:16:17.869Z,28.17
2018-06-04T08:18:45.995Z,28.40
2018-06-04T08:21:14.107Z,28.77
2018-06-04T08:23:42.239Z,27.93
2018-06-04T08:26:10.333Z,27.22
2018-06-04T08:28:38.433Z,28.02
2018-06-04T08:31:06.530Z,28.35
2018-06-04T08:33:34.642Z,28.42
2018-06-04T08:36:02.752Z,27.00
2018-06-04T08:38:30.916Z,24.45
2018-06-04T08:40:59.002Z,24.60
2018-06-04T08:43:27.121Z,25.72
2018-06-04T08:45:55.294Z,26.12
2018-06-04T08:48:23.366Z,24.47
2018-06-04T08:50:52.403Z,25.95
2018-06-04T08:53:20.499Z,25.32
2018-06-04T08:55:48.630Z,25.43
2018-06-04T08:58:16.731Z,26.52
2018-06-04T09:00:44.848Z,26.27
2018-06-04T09:03:12.954Z,25.43
2018-06-04T09:05:41.071Z,26.27
2018-06-04T09:08:09.194Z,24.80
2018-06-04T09:10:37.298Z,24.67
2018-06-04T09:13:05.410Z,27.33
2018-06-04T09:15:33.525Z,25.87
2018-06-04T09:18:01.647Z,27.93
2018-06-04T09:20:29.755Z,27.07
2018-06-04T09:22:57.858Z,26.43
2018-06-04T09:25:25.967Z,23.77
2018-06-04T09:27:54.082Z,23.37
2018-06-04T09:30:22.181Z,21.73
2018-06-04T09:32:50.323Z,23.33
2018-06-04T09:35:18.434Z,22.87
2018-06-04T09:37:46.571Z,22.83
2018-06-04T09:40:14.678Z,21.90
2018-06-04T09:42:42.834Z,20.87
2018-06-04T09:45:10.949Z,19.03
2018-06-04T09:47:42.478Z,19.57
2018-06-04T09:50:10.591Z,18.93
2018-06-04T09:52:38.696Z,19.80
2018-06-04T09:55:06.815Z,17.80
2018-06-04T09:57:34.923Z,16.90
2018-06-04T10:00:03.022Z,24.70
2018-06-04T10:02:31.114Z,25.57
2018-06-04T10:04:59.213Z,27.53
2018-06-04T10:07:27.302Z,28.57
2018-06-04T10:09:55.393Z,27.07
2018-06-04T10:12:23.499Z,27.00
2018-06-04T10:14:51.606Z,25.30
2018-06-04T10:17:19.706Z,28.43
2018-06-04T10:19:47.799Z,30.50
2018-06-04T10:22:16.409Z,33.07
2018-06-04T10:24:44.501Z,31.10
2018-06-04T10:27:12.596Z,31.40
2018-06-04T10:29:40.707Z,32.10
2018-06-04T10:32:08.838Z,32.00
2018-06-04T10:34:36.939Z,30.07
2018-06-04T10:37:05.062Z,30.37
2018-06-04T10:39:33.913Z,29.50
2018-06-04T10:42:02.030Z,29.67
2018-06-04T10:44:30.134Z,29.87
2018-06-04T10:46:58.235Z,30.73
2018-06-04T10:49:26.338Z,30.03
2018-06-04T10:51:54.446Z,30.03
2018-06-04T10:54:22.552Z,29.50
2018-06-04T10:56:50.846Z,29.63
2018-06-04T10:59:18.958Z,30.10
2018-06-04T11:01:47.098Z,26.73
2018-06-04T11:04:15.830Z,27.60
2018-06-04T11:06:43.941Z,28.73
2018-06-04T11:09:12.081Z,26.83
2018-06-04T11:11:40.175Z,29.07
2018-06-04T11:14:08.302Z,29.37
2018-06-04T11:16:36.410Z,29.30
2018-06-04T11:19:04.545Z,29.73
2018-06-04T11:21:32.642Z,28.47
2018-06-04T11:24:00.756Z,27.33
2018-06-04T11:26:28.884Z,26.73
2018-06-04T11:28:57.023Z,27.00
2018-06-04T11:31:25.122Z,25.73
2018-06-04T11:33:53.259Z,24.80
2018-06-04T11:36:21.377Z,21.53
2018-06-04T11:38:49.501Z,22.50
2018-06-04T11:41:17.684Z,24.43
2018-06-04T11:43:45.798Z,24.73
2018-06-04T11:46:13.901Z,25.97
2018-06-04T11:48:42.002Z,26.90
2018-06-04T11:51:10.149Z,25.27
2018-06-04T11:53:38.217Z,24.33
2018-06-04T11:56:06.324Z,25.70
2018-06-04T11:58:34.430Z,25.63
2018-06-04T12:01:02.535Z,25.67
2018-06-04T12:03:30.633Z,25.90
2018-06-04T12:05:58.781Z,24.60
2018-06-04T12:08:26.890Z,24.40
2018-06-04T12:10:55.005Z,24.33
2018-06-04T12:13:23.134Z,25.60
2018-06-04T12:15:51.234Z,26.53
2018-06-04T12:18:19.340Z,26.57
2018-06-04T12:20:47.497Z,26.87
2018-06-04T12:23:15.601Z,25.13
2018-06-04T12:25:43.714Z,27.70
2018-06-04T12:28:11.854Z,24.87
2018-06-04T12:30:39.947Z,25.77
2018-06-04T12:33:08.069Z,24.53
2018-06-04T12:35:36.173Z,22.97
2018-06-04T12:38:04.266Z,23.00
2018-06-04T12:40:32.378Z,23.03
2018-06-04T12:43:00.492Z,23.40
2018-06-04T12:45:28.614Z,23.67
2018-06-04T12:47:56.725Z,25.00
2018-06-04T12:50:24.838Z,24.13
2018-06-04T12:52:52.968Z,24.93
2018-06-04T12:55:21.065Z,25.50
2018-06-04T12:57:49.177Z,23.87
2018-06-04T13:00:17.554Z,22.20
2018-06-04T13:02:45.649Z,25.23
2018-06-04T13:05:13.782Z,23.97
2018-06-04T13:07:41.885Z,24.30
2018-06-04T13:10:10.009Z,22.80
2018-06-04T13:12:38.118Z,23.17
2018-06-04T13:15:06.243Z,24.67
2018-06-04T13:17:34.341Z,24.37
2018-06-04T13:20:02.457Z,24.30
2018-06-04T13:22:30.546Z,23.83
2018-06-04T13:24:58.666Z,26.07
2018-06-04T13:27:26.774Z,24.63
2018-06-04T13:29:54.898Z,25.53
2018-06-04T13:32:22.993Z,24.80
2018-06-04T13:34:51.094Z,26.53
2018-06-04T13:37:19.190Z,25.60
2018-06-04T13:39:47.294Z,23.93
2018-06-04T13:42:15.398Z,25.60
2018-06-04T13:44:43.502Z,25.83
2018-06-04T13:47:11.590Z,24.13
2018-06-04T13:49:39.693Z,24.60
2018-06-04T13:52:07.797Z,23.70
2018-06-04T13:54:35.889Z,22.47
2018-06-04T13:57:04.030Z,23.33
2018-06-04T13:59:32.180Z,22.00
2018-06-04T14:02:00.290Z,21.70
2018-06-04T14:04:28.377Z,22.73
2018-06-04T14:06:56.467Z,21.27
2018-06-04T14:09:24.565Z,21.37
2018-06-04T14:11:52.657Z,19.07
2018-06-04T14:14:20.821Z,19.27
2018-06-04T14:16:48.912Z,20.73
2018-06-04T14:19:17.026Z,21.20
2018-06-04T14:21:45.129Z,18.33
2018-06-04T14:24:13.233Z,17.57
2018-06-04T14:26:41.334Z,19.40
2018-06-04T14:29:09.441Z,19.00
2018-06-04T14:31:37.553Z,17.63
2018-06-04T14:34:05.654Z,18.57
2018-06-04T14:36:33.766Z,18.03
2018-06-04T14:39:01.895Z,18.23
2018-06-04T14:41:30.001Z,18.53
2018-06-04T14:43:59.142Z,17.83
2018-06-04T14:46:27.257Z,17.73
2018-06-04T14:48:55.380Z,17.40
2018-06-04T14:51:23.489Z,15.20
2018-06-04T14:53:51.609Z,15.67
2018-06-04T14:56:19.717Z,14.70
2018-06-04T14:58:47.837Z,13.87
2018-06-04T15:01:15.929Z,13.97
2018-06-04T15:03:44.053Z,14.33
2018-06-04T15:06:12.182Z,12.37
2018-06-04T15:08:40.766Z,12.17
2018-06-04T15:11:08.891Z,13.13
2018-06-04T15:13:36.977Z,11.67
2018-06-04T15:16:05.104Z,12.80
2018-06-04T15:18:33.213Z,14.67
2018-06-04T15:21:01.373Z,16.93
2018-06-04T15:23:29.475Z,13.87
2018-06-04T15:25:57.589Z,15.17
2018-06-04T15:28:25.684Z,14.87
2018-06-04T15:30:53.777Z,13.40
2018-06-04T15:33:21.875Z,13.83
2018-06-04T15:35:49.973Z,14.63
2018-06-04T15:38:18.067Z,13.57
2018-06-04T15:40:46.189Z,13.70
2018-06-04T15:43:14.302Z,13.63
2018-06-04T15:45:42.454Z,13.40
2018-06-04T15:48:10.657Z,14.57
2018-06-04T15:50:38.759Z,15.07
2018-06-04T15:53:07.257Z,13.80
2018-06-04T15:55:35.342Z,15.57
2018-06-04T15:58:03.463Z,14.80
2018-06-04T16:00:31.677Z,14.93
2018-06-04T16:03:00.785Z,14.87
2018-06-04T16:05:28.853Z,14.03
2018-06-04T16:07:56.953Z,15.47
2018-06-04T16:10:25.057Z,14.53
2018-06-04T16:12:53.142Z,14.90
2018-06-04T16:15:21.229Z,15.80
2018-06-04T16:17:49.343Z,16.13
2018-06-04T16:20:17.449Z,14.87
2018-06-04T16:22:45.566Z,14.37
2018-06-04T16:25:13.661Z,14.70
2018-06-04T16:27:41.758Z,14.60
2018-06-04T16:30:10.389Z,13.90
2018-06-04T16:32:38.490Z,14.57
2018-06-04T16:35:06.610Z,13.50
2018-06-04T16:37:34.750Z,12.53
2018-06-04T16:40:02.826Z,12.93
2018-06-04T16:42:30.922Z,13.90
2018-06-04T16:44:59.040Z,14.77
2018-06-04T16:47:27.158Z,14.10
2018-06-04T16:49:55.261Z,13.37
2018-06-04T16:52:23.824Z,13.63
2018-06-04T16:54:52.341Z,13.87
2018-06-04T16:57:20.617Z,14.87
2018-06-04T16:59:48.722Z,14.80
2018-06-04T17:02:18.053Z,12.77
2018-06-04T17:04:46.188Z,14.03
2018-06-04T17:07:14.422Z,13.67
2018-06-04T17:09:42.577Z,14.93
2018-06-04T17:12:10.688Z,13.57
2018-06-04T17:14:38.797Z,13.73
2018-06-04T17:17:06.897Z,14.83
2018-06-04T17:19:34.985Z,14.67
2018-06-04T17:22:03.090Z,14.17
2018-06-04T17:24:31.193Z,15.93
2018-06-04T17:26:59.315Z,14.70
2018-06-04T17:29:27.435Z,14.27
2018-06-04T17:31:55.536Z,15.07
2018-06-04T17:34:23.641Z,14.43
2018-06-04T17:36:51.749Z,14.00
2018-06-04T17:39:19.832Z,12.83
2018-06-04T17:41:47.943Z,13.47
2018-06-04T17:44:16.058Z,14.37
2018-06-04T17:46:44.149Z,13.90
2018-06-04T17:49:12.247Z,14.33
2018-06-04T17:51:40.346Z,13.73
2018-06-04T17:54:08.435Z,14.23
2018-06-04T17:56:36.537Z,13.77
2018-06-04T17:59:04.637Z,13.93
2018-06-04T18:01:32.751Z,15.00
2018-06-04T18:04:00.868Z,14.83
2018-06-04T18:06:28.973Z,15.37
2018-06-04T18:08:57.082Z,15.17
2018-06-04T18:11:25.185Z,14.33
2018-06-04T18:13:53.288Z,13.27
2018-06-04T18:16:21.393Z,14.27
2018-06-04T18:18:49.503Z,14.17
2018-06-04T18:21:17.619Z,13.33
2018-06-04T18:23:45.726Z,12.70
2018-06-04T18:26:13.824Z,11.77
2018-06-04T18:28:41.938Z,12.50
2018-06-04T18:31:10.046Z,12.60
2018-06-04T18:33:38.161Z,12.27
2018-06-04T18:36:06.273Z,13.47
2018-06-04T18:38:34.389Z,13.77
2018-06-04T18:41:02.498Z,12.43
2018-06-04T18:43:30.601Z,11.33
2018-06-04T18:45:58.702Z,11.97
2018-06-04T18:48:26.812Z,12.17
2018-06-04T18:50:54.931Z,11.30
2018-06-04T18:53:23.033Z,12.53
2018-06-04T18:55:51.141Z,12.20
2018-06-04T18:58:19.239Z,11.60
2018-06-04T19:00:47.342Z,10.90
2018-06-04T19:03:15.453Z,11.50
2018-06-04T19:05:43.562Z,12.53
2018-06-04T19:08:11.661Z,11.10
2018-06-04T19:10:39.750Z,11.10
2018-06-04T19:13:07.860Z,11.27
2018-06-04T19:15:35.959Z,11.77
2018-06-04T19:18:04.070Z,11.20
2018-06-04T19:20:32.173Z,11.60
2018-06-04T19:23:00.286Z,11.77
2018-06-04T19:25:28.400Z,11.93
2018-06-04T19:27:56.518Z,11.60
2018-06-04T19:30:24.627Z,12.50
2018-06-04T19:32:54.308Z,12.33
2018-06-04T19:35:22.407Z,12.17
2018-06-04T19:37:50.523Z,11.53
2018-06-04T19:40:18.687Z,11.77
2018-06-04T19:42:46.934Z,12.17
2018-06-04T19:45:15.134Z,12.27
2018-06-04T19:47:43.314Z,13.17
2018-06-04T19:50:11.434Z,12.67
2018-06-04T19:52:39.550Z,13.20
2018-06-04T19:55:08.341Z,13.83
2018-06-04T19:57:36.463Z,14.60
2018-06-04T20:00:04.831Z,13.63
2018-06-04T20:02:32.966Z,13.87
2018-06-04T20:05:01.082Z,13.43
2018-06-04T20:07:29.194Z,14.13
2018-06-04T20:09:57.300Z,13.60
2018-06-04T20:12:25.424Z,15.13
2018-06-04T20:14:53.538Z,15.07
2018-06-04T20:17:21.667Z,13.63
2018-06-04T20:19:49.779Z,14.40
2018-06-04T20:22:17.886Z,15.50
2018-06-04T20:24:45.986Z,14.87
2018-06-04T20:27:14.091Z,14.67
2018-06-04T20:29:42.197Z,15.37
2018-06-04T20:32:10.293Z,15.70
2018-06-04T20:34:38.454Z,15.97
2018-06-04T20:37:06.599Z,14.63
2018-06-04T20:39:34.704Z,15.63
2018-06-04T20:42:02.802Z,15.67
2018-06-04T20:44:32.254Z,15.03
2018-06-04T20:47:00.358Z,16.10
2018-06-04T20:49:28.502Z,16.77
2018-06-04T20:51:56.606Z,16.50
2018-06-04T20:54:24.734Z,15.80
2018-06-04T20:56:52.858Z,16.73
2018-06-04T20:59:20.979Z,16.97
2018-06-04T21:01:49.084Z,16.80
2018-06-04T21:04:17.291Z,17.33
2018-06-04T21:06:45.470Z,17.90
2018-06-04T21:09:13.579Z,19.13
2018-06-04T21:11:41.674Z,20.13
2018-06-04T21:14:09.777Z,21.07
2018-06-04T21:16:37.869Z,22.67
2018-06-04T21:19:05.990Z,22.10
2018-06-04T21:21:34.089Z,24.37
2018-06-04T21:24:02.189Z,23.53
2018-06-04T21:26:30.310Z,22.93
2018-06-04T21:28:58.413Z,23.67
2018-06-04T21:31:26.508Z,23.83
2018-06-04T21:33:54.609Z,22.77
2018-06-04T21:36:22.730Z,23.77
2018-06-04T21:38:50.873Z,23.00
2018-06-04T21:41:18.982Z,27.67
2018-06-04T21:43:47.139Z,28.07
2018-06-04T21:46:15.265Z,29.47
2018-06-04T21:48:47.274Z,30.57
2018-06-04T21:51:15.560Z,32.00
2018-06-04T21:53:43.659Z,32.73
2018-06-04T21:56:11.755Z,34.33
2018-06-04T21:58:39.864Z,31.07
2018-06-04T22:01:07.954Z,34.57
2018-06-04T22:03:36.068Z,36.33
2018-06-04T22:06:04.167Z,35.47
2018-06-04T22:08:32.305Z,36.03
2018-06-04T22:11:00.383Z,34.23
2018-06-04T22:13:28.543Z,37.53
2018-06-04T22:15:56.646Z,37.33
2018-06-04T22:18:24.739Z,40.57
2018-06-04T22:20:52.833Z,38.17
2018-06-04T22:23:20.997Z,39.07
2018-06-04T22:25:49.097Z,38.57
2018-06-04T22:28:17.214Z,36.37
2018-06-04T22:30:45.333Z,37.50
2018-06-04T22:33:13.428Z,37.20
2018-06-04T22:35:41.541Z,37.50
2018-06-04T22:38:09.689Z,35.63
2018-06-04T22:40:37.806Z,37.80
2018-06-04T22:43:05.909Z,37.23
2018-06-04T22:45:34.030Z,37.03
2018-06-04T22:48:02.131Z,36.90
2018-06-04T22:50:30.248Z,35.63
2018-06-04T22:52:58.353Z,35.10
2018-06-04T22:55:26.466Z,34.43
2018-06-04T22:57:54.569Z,37.23
2018-06-04T23:00:27.830Z,37.23
2018-06-04T23:02:56.521Z,38.83
2018-06-04T23:05:24.663Z,38.03
2018-06-04T23:07:52.759Z,40.63
2018-06-04T23:10:20.869Z,39.77
2018-06-04T23:12:48.973Z,39.47
2018-06-04T23:15:17.457Z,40.23
2018-06-04T23:17:45.553Z,38.93
2018-06-04T23:20:13.649Z,38.87
2018-06-04T23:22:41.761Z,40.27
2018-06-04T23:25:09.868Z,42.13
2018-06-04T23:27:37.974Z,44.80
2018-06-04T23:30:06.075Z,44.03
2018-06-04T23:32:34.193Z,45.17
2018-06-04T23:35:02.315Z,45.23
2018-06-04T23:37:30.433Z,45.43
2018-06-04T23:39:58.538Z,46.93
2018-06-04T23:42:26.650Z,46.60
2018-06-04T23:44:54.754Z,46.57
2018-06-04T23:47:22.858Z,46.80
2018-06-04T23:49:50.958Z,44.07
2018-06-04T23:52:19.058Z,39.70
2018-06-04T23:54:47.161Z,40.33
2018-06-04T23:57:15.293Z,40.60
2018-06-04T23:59:43.397Z,37.90
